createdAt,value
2019-05-05T00:01:46.479Z,94.20
2019-05-05T00:04:19.661Z,94.10
2019-05-05T00:06:48.804Z,94.20
2019-05-05T00:09:17.739Z,93.90
2019-05-05T00:11:51.140Z,93.70
2019-05-05T00:14:21.670Z,93.50
2019-05-05T00:16:55.386Z,94.00
2019-05-05T00:19:32.644Z,94.60
2019-05-05T00:21:55.181Z,94.50
2019-05-05T00:24:24.521Z,94.60
2019-05-05T00:26:55.310Z,95.20
2019-05-05T00:29:25.352Z,94.70
2019-05-05T00:31:54.769Z,94.60
2019-05-05T00:34:24.448Z,94.80
2019-05-05T00:36:55.204Z,94.70
2019-05-05T00:39:25.468Z,94.60
2019-05-05T00:41:55.527Z,94.90
2019-05-05T00:44:24.793Z,94.70
2019-05-05T00:46:55.565Z,94.00
2019-05-05T00:49:25.046Z,94.00
2019-05-05T00:51:54.795Z,94.80
2019-05-05T00:54:24.390Z,94.80
2019-05-05T00:56:54.484Z,94.70
2019-05-05T00:59:27.805Z,94.80
2019-05-05T01:02:15.077Z,94.60
2019-05-05T01:04:45.863Z,94.90
2019-05-05T01:07:14.336Z,94.80
2019-05-05T01:09:45.144Z,94.70
2019-05-05T01:12:15.055Z,94.20
2019-05-05T01:14:44.775Z,94.40
2019-05-05T01:17:14.745Z,94.50
2019-05-05T01:19:46.736Z,94.40
2019-05-05T01:22:14.584Z,94.40
2019-05-05T01:24:45.750Z,94.10
2019-05-05T01:27:14.714Z,93.90
2019-05-05T01:29:45.212Z,93.50
2019-05-05T01:32:15.921Z,93.60
2019-05-05T01:34:47.802Z,94.00
2019-05-05T01:37:34.855Z,94.10
2019-05-05T01:40:07.333Z,94.40
2019-05-05T01:42:36.384Z,95.20
2019-05-05T01:45:05.467Z,95.60
2019-05-05T01:47:34.772Z,95.60
2019-05-05T01:50:17.654Z,95.70
2019-05-05T01:52:35.927Z,95.70
2019-05-05T01:55:05.996Z,95.70
2019-05-05T01:57:35.147Z,94.40
2019-05-05T02:00:08.219Z,95.30
2019-05-05T02:02:37.169Z,95.20
2019-05-05T02:05:06.828Z,95.10
2019-05-05T02:07:35.768Z,95.20
2019-05-05T02:10:06.336Z,95.00
2019-05-05T02:12:35.378Z,94.90
2019-05-05T02:15:06.539Z,95.10
2019-05-05T02:17:35.668Z,94.70
2019-05-05T02:20:05.462Z,94.40
2019-05-05T02:22:35.633Z,94.30
2019-05-05T02:25:06.667Z,94.20
2019-05-05T02:27:34.975Z,93.90
2019-05-05T02:30:06.600Z,91.80
2019-05-05T02:32:40.282Z,91.10
2019-05-05T02:35:16.213Z,91.30
2019-05-05T02:37:45.640Z,91.50
2019-05-05T02:40:15.953Z,90.80
2019-05-05T02:42:45.786Z,90.50
2019-05-05T02:45:25.341Z,90.80
2019-05-05T02:48:05.493Z,90.40
2019-05-05T02:50:51.030Z,90.40
2019-05-05T02:53:04.883Z,90.50
2019-05-05T02:55:34.792Z,90.60
2019-05-05T02:58:03.913Z,90.30
2019-05-05T03:00:37.309Z,90.10
2019-05-05T03:03:07.888Z,90.60
2019-05-05T03:05:36.845Z,90.30
2019-05-05T03:08:05.737Z,90.70
2019-05-05T03:10:34.779Z,91.40
2019-05-05T03:13:04.891Z,91.70
2019-05-05T03:15:56.634Z,92.10
2019-05-05T03:18:25.587Z,92.10
2019-05-05T03:21:02.320Z,92.00
2019-05-05T03:23:25.243Z,92.30
2019-05-05T03:25:54.649Z,92.80
2019-05-05T03:28:25.543Z,93.10
2019-05-05T03:30:55.768Z,93.00
2019-05-05T03:33:25.171Z,93.20
2019-05-05T03:35:54.566Z,92.60
2019-05-05T03:38:24.771Z,93.00
2019-05-05T03:40:55.712Z,93.20
2019-05-05T03:43:27.953Z,93.10
2019-05-05T03:45:58.497Z,92.90
2019-05-05T03:48:27.285Z,92.70
2019-05-05T03:50:56.267Z,91.50
2019-05-05T03:53:25.087Z,90.10
2019-05-05T03:55:54.660Z,87.80
2019-05-05T03:58:24.125Z,89.20
2019-05-05T04:01:05.362Z,88.40
2019-05-05T04:03:34.322Z,90.10
2019-05-05T04:06:04.966Z,88.50
2019-05-05T04:08:33.918Z,88.20
2019-05-05T04:11:03.921Z,88.60
2019-05-05T04:13:34.459Z,87.80
2019-05-05T04:16:14.997Z,88.20
2019-05-05T04:18:48.417Z,86.60
2019-05-05T04:21:30.276Z,87.90
2019-05-05T04:23:47.352Z,88.30
2019-05-05T04:26:16.581Z,87.90
2019-05-05T04:28:45.653Z,88.50
2019-05-05T04:31:14.797Z,87.20
2019-05-05T04:33:44.458Z,87.20
2019-05-05T04:36:14.451Z,87.00
2019-05-05T04:38:44.799Z,86.90
2019-05-05T04:41:14.156Z,86.90
2019-05-05T04:43:44.164Z,88.80
2019-05-05T04:46:14.097Z,88.70
2019-05-05T04:48:50.892Z,88.20
2019-05-05T04:51:24.487Z,89.40
2019-05-05T04:54:10.400Z,87.60
2019-05-05T04:56:39.429Z,87.80
2019-05-05T04:59:08.319Z,89.10
2019-05-05T05:01:37.470Z,90.10
2019-05-05T05:04:10.894Z,87.90
2019-05-05T05:06:54.237Z,87.30
2019-05-05T05:09:23.720Z,90.00
2019-05-05T05:11:54.578Z,91.10
2019-05-05T05:14:24.731Z,91.50
2019-05-05T05:16:54.722Z,91.40
2019-05-05T05:19:24.199Z,91.60
2019-05-05T05:22:01.279Z,90.30
2019-05-05T05:24:23.759Z,90.00
2019-05-05T05:26:53.042Z,90.30
2019-05-05T05:29:23.810Z,90.20
2019-05-05T05:31:53.519Z,87.80
2019-05-05T05:34:23.877Z,87.60
2019-05-05T05:36:53.642Z,86.10
2019-05-05T05:39:30.439Z,88.30
2019-05-05T05:41:59.247Z,90.60
2019-05-05T05:44:33.830Z,90.70
2019-05-05T05:47:21.075Z,91.00
2019-05-05T05:50:04.105Z,91.40
2019-05-05T05:52:43.727Z,89.80
2019-05-05T05:55:14.579Z,90.60
2019-05-05T05:57:43.921Z,89.50
2019-05-05T06:00:14.522Z,91.40
2019-05-05T06:02:43.954Z,89.70
2019-05-05T06:05:14.691Z,91.00
2019-05-05T06:07:44.898Z,90.50
2019-05-05T06:10:22.302Z,91.30
2019-05-05T06:12:45.015Z,91.20
2019-05-05T06:15:15.844Z,91.90
2019-05-05T06:17:44.616Z,91.10
2019-05-05T06:20:15.058Z,91.20
2019-05-05T06:22:44.688Z,92.30
2019-05-05T06:25:21.203Z,92.80
2019-05-05T06:27:54.182Z,93.40
2019-05-05T06:30:24.347Z,93.10
2019-05-05T06:32:54.387Z,92.50
2019-05-05T06:35:24.467Z,91.10
2019-05-05T06:37:54.945Z,91.40
2019-05-05T06:40:46.899Z,90.60
2019-05-05T06:46:11.437Z,90.10
2019-05-05T06:48:40.196Z,90.10
2019-05-05T06:51:09.006Z,92.20
2019-05-05T06:53:38.130Z,87.30
2019-05-05T06:56:06.977Z,91.10
2019-05-05T06:58:35.685Z,90.50
2019-05-05T07:01:04.561Z,90.90
2019-05-05T07:03:33.792Z,91.50
2019-05-05T07:06:04.240Z,92.50
2019-05-05T07:08:35.040Z,91.10
2019-05-05T07:11:04.099Z,90.80
2019-05-05T07:13:33.887Z,87.70
2019-05-05T07:16:05.212Z,89.80
2019-05-05T07:18:34.259Z,88.80
2019-05-05T07:21:05.205Z,85.30
2019-05-05T07:23:34.305Z,86.60
2019-05-05T07:26:04.125Z,84.30
2019-05-05T07:28:34.223Z,87.10
2019-05-05T07:31:04.428Z,85.40
2019-05-05T07:33:34.554Z,84.90
2019-05-05T07:36:06.117Z,85.70
2019-05-05T07:38:35.305Z,88.70
2019-05-05T07:41:04.082Z,87.30
2019-05-05T07:43:34.495Z,87.20
2019-05-05T07:46:04.470Z,88.10
2019-05-05T07:48:33.651Z,86.40
2019-05-05T07:51:05.258Z,83.50
2019-05-05T07:53:33.594Z,84.60
2019-05-05T07:56:03.922Z,84.00
2019-05-05T07:58:34.387Z,83.50
2019-05-05T08:01:04.605Z,86.00
2019-05-05T08:03:33.944Z,84.40
2019-05-05T08:06:03.985Z,88.00
2019-05-05T08:08:33.559Z,88.30
2019-05-05T08:11:04.655Z,87.40
2019-05-05T08:13:33.612Z,85.40
2019-05-05T08:16:04.355Z,86.50
2019-05-05T08:18:51.033Z,84.80
2019-05-05T08:21:20.035Z,86.60
2019-05-05T08:23:54.034Z,83.50
2019-05-05T08:26:28.863Z,85.80
2019-05-05T08:28:59.387Z,83.30
2019-05-05T08:31:29.828Z,81.20
2019-05-05T08:33:58.707Z,79.90
2019-05-05T08:36:27.614Z,80.80
2019-05-05T08:38:56.456Z,80.10
2019-05-05T08:41:25.281Z,81.30
2019-05-05T08:43:54.343Z,83.40
2019-05-05T08:46:24.769Z,81.20
2019-05-05T08:48:53.852Z,80.00
2019-05-05T08:51:24.664Z,91.00
2019-05-05T08:53:54.588Z,90.00
2019-05-05T08:56:24.441Z,85.60
2019-05-05T08:58:54.509Z,85.00
2019-05-05T09:01:23.821Z,82.10
2019-05-05T09:03:53.535Z,82.30
2019-05-05T09:06:24.140Z,79.60
2019-05-05T09:08:54.725Z,77.80
2019-05-05T09:11:24.052Z,76.10
2019-05-05T09:13:53.538Z,77.20
2019-05-05T09:16:24.197Z,80.80
2019-05-05T09:19:08.021Z,77.80
2019-05-05T09:21:37.011Z,80.10
2019-05-05T09:24:24.961Z,82.00
2019-05-05T09:27:03.501Z,77.90
2019-05-05T09:29:36.639Z,76.00
2019-05-05T09:32:05.755Z,78.40
2019-05-05T09:34:34.637Z,83.70
2019-05-05T09:37:04.256Z,77.80
2019-05-05T09:39:34.541Z,78.90
2019-05-05T09:42:04.096Z,77.60
2019-05-05T09:44:34.644Z,79.60
2019-05-05T09:47:04.725Z,79.00
2019-05-05T09:49:33.935Z,75.00
2019-05-05T09:52:04.920Z,76.40
2019-05-05T09:54:34.540Z,77.50
2019-05-05T09:57:04.476Z,72.60
2019-05-05T09:59:34.702Z,73.10
2019-05-05T10:02:05.610Z,76.80
2019-05-05T10:04:34.605Z,83.20
2019-05-05T10:07:05.282Z,79.90
2019-05-05T10:09:34.608Z,77.40
2019-05-05T10:12:04.716Z,77.20
2019-05-05T10:14:34.308Z,77.10
2019-05-05T10:17:04.939Z,78.40
2019-05-05T10:19:34.730Z,78.10
2019-05-05T10:22:04.055Z,77.50
2019-05-05T10:24:36.186Z,79.20
2019-05-05T10:27:05.064Z,75.40
2019-05-05T10:29:34.194Z,73.80
2019-05-05T10:32:04.545Z,73.90
2019-05-05T10:34:33.596Z,75.60
2019-05-05T10:37:04.164Z,75.20
2019-05-05T10:39:36.797Z,76.40
2019-05-05T10:42:05.794Z,76.90
2019-05-05T10:44:34.698Z,76.40
2019-05-05T10:47:04.543Z,73.20
2019-05-05T10:49:33.770Z,78.10
2019-05-05T10:52:04.106Z,80.70
2019-05-05T10:54:43.820Z,88.50
2019-05-05T10:57:04.006Z,81.80
2019-05-05T10:59:34.430Z,76.60
2019-05-05T11:02:04.974Z,76.00
2019-05-05T11:04:34.233Z,79.10
2019-05-05T11:07:04.202Z,74.40
2019-05-05T11:09:35.214Z,74.70
2019-05-05T11:12:04.146Z,75.60
2019-05-05T11:14:33.701Z,74.30
2019-05-05T11:17:04.163Z,75.20
2019-05-05T11:19:33.714Z,76.80
2019-05-05T11:22:02.879Z,74.00
2019-05-05T11:24:31.967Z,76.10
2019-05-05T11:27:00.774Z,72.40
2019-05-05T11:29:29.657Z,74.20
2019-05-05T11:32:00.179Z,75.10
2019-05-05T11:34:29.689Z,74.30
2019-05-05T11:37:00.097Z,77.10
2019-05-05T11:39:29.121Z,78.10
2019-05-05T11:41:58.098Z,81.50
2019-05-05T11:44:28.639Z,85.00
2019-05-05T11:46:57.605Z,87.90
2019-05-05T11:49:26.538Z,73.30
2019-05-05T11:51:55.602Z,71.70
2019-05-05T11:54:24.741Z,78.40
2019-05-05T11:56:55.258Z,77.50
2019-05-05T11:59:24.264Z,69.30
2019-05-05T12:01:54.957Z,75.50
2019-05-05T12:04:24.066Z,71.90
2019-05-05T12:06:53.004Z,71.40
2019-05-05T12:09:24.768Z,76.20
2019-05-05T12:11:54.496Z,78.60
2019-05-05T12:14:27.249Z,72.10
2019-05-05T12:16:55.760Z,78.70
2019-05-05T12:19:24.685Z,78.50
2019-05-05T12:21:54.803Z,75.70
2019-05-05T12:24:25.647Z,74.10
2019-05-05T12:27:05.249Z,76.10
2019-05-05T12:29:35.559Z,72.60
2019-05-05T12:32:04.481Z,72.80
2019-05-05T12:34:34.071Z,78.60
2019-05-05T12:37:05.312Z,76.20
2019-05-05T12:39:34.390Z,70.60
2019-05-05T12:42:04.839Z,67.80
2019-05-05T12:44:36.068Z,72.30
2019-05-05T12:47:15.414Z,70.40
2019-05-05T12:49:44.606Z,68.60
2019-05-05T12:52:13.978Z,74.90
2019-05-05T12:54:44.095Z,65.70
2019-05-05T12:57:13.763Z,67.70
2019-05-05T12:59:44.381Z,67.30
2019-05-05T13:02:14.296Z,68.00
2019-05-05T13:04:45.003Z,68.00
2019-05-05T13:07:14.829Z,69.00
2019-05-05T13:09:44.172Z,71.90
2019-05-05T13:12:14.856Z,69.00
2019-05-05T13:14:43.978Z,66.30
2019-05-05T13:17:14.184Z,67.50
2019-05-05T13:19:44.916Z,65.50
2019-05-05T13:22:35.100Z,66.50
2019-05-05T13:25:17.916Z,67.90
2019-05-05T13:27:47.043Z,67.70
2019-05-05T13:30:16.105Z,70.40
2019-05-05T13:32:48.472Z,71.00
2019-05-05T13:35:21.008Z,67.20
2019-05-05T13:37:51.884Z,69.10
2019-05-05T13:40:20.162Z,69.40
2019-05-05T13:42:49.097Z,68.00
2019-05-05T13:45:38.289Z,66.40
2019-05-05T13:48:07.937Z,68.20
2019-05-05T13:50:38.235Z,68.90
2019-05-05T13:53:11.197Z,68.90
2019-05-05T13:55:41.769Z,68.90
2019-05-05T13:58:16.706Z,68.70
2019-05-05T14:00:46.996Z,67.70
2019-05-05T14:03:16.423Z,68.30
2019-05-05T14:05:45.443Z,69.80
2019-05-05T14:08:14.675Z,65.70
2019-05-05T14:10:45.788Z,66.70
2019-05-05T14:13:19.679Z,65.30
2019-05-05T14:15:54.370Z,64.50
2019-05-05T14:18:23.746Z,68.70
2019-05-05T14:20:52.746Z,68.20
2019-05-05T14:23:23.912Z,69.40
2019-05-05T14:25:54.421Z,66.60
2019-05-05T14:28:23.506Z,66.50
2019-05-05T14:30:56.369Z,63.80
2019-05-05T14:33:30.241Z,68.50
2019-05-05T14:36:21.850Z,66.70
2019-05-05T14:38:53.916Z,63.60
2019-05-05T14:41:23.997Z,65.30
2019-05-05T14:43:56.646Z,67.30
2019-05-05T14:46:25.570Z,68.30
2019-05-05T14:48:56.257Z,66.60
2019-05-05T14:51:26.874Z,65.70
2019-05-05T14:53:55.872Z,64.70
2019-05-05T14:56:36.146Z,64.90
2019-05-05T14:58:56.831Z,66.80
2019-05-05T15:01:25.682Z,66.80
2019-05-05T15:03:54.751Z,63.10
2019-05-05T15:06:30.335Z,64.80
2019-05-05T15:09:07.886Z,63.40
2019-05-05T15:11:46.618Z,63.80
2019-05-05T15:14:18.811Z,63.50
2019-05-05T15:16:47.725Z,65.10
2019-05-05T15:19:20.503Z,64.90
2019-05-05T15:22:00.597Z,68.90
2019-05-05T15:24:31.071Z,64.50
2019-05-05T15:27:01.796Z,66.20
2019-05-05T15:29:30.142Z,65.80
2019-05-05T15:31:59.312Z,66.60
2019-05-05T15:34:35.913Z,64.80
2019-05-05T15:37:11.771Z,66.40
2019-05-05T15:39:57.117Z,68.90
2019-05-05T15:42:29.688Z,66.00
2019-05-05T15:44:58.910Z,65.00
2019-05-05T15:47:28.175Z,67.40
2019-05-05T15:49:57.158Z,72.20
2019-05-05T15:52:26.683Z,72.60
2019-05-05T15:54:55.962Z,69.30
2019-05-05T15:57:24.999Z,69.10
2019-05-05T15:59:54.380Z,66.60
2019-05-05T16:02:24.006Z,65.70
2019-05-05T16:04:54.148Z,66.60
2019-05-05T16:07:24.263Z,66.40
2019-05-05T16:09:53.700Z,65.50
2019-05-05T16:12:31.988Z,65.70
2019-05-05T16:15:01.718Z,66.10
2019-05-05T16:17:34.222Z,64.90
2019-05-05T16:20:05.100Z,65.80
2019-05-05T16:22:35.713Z,67.00
2019-05-05T16:25:10.270Z,69.00
2019-05-05T16:27:40.078Z,67.60
2019-05-05T16:30:10.787Z,68.50
2019-05-05T16:32:41.922Z,71.90
2019-05-05T16:35:11.298Z,73.00
2019-05-05T16:37:40.749Z,70.40
2019-05-05T16:40:10.253Z,72.20
2019-05-05T16:42:39.286Z,69.90
2019-05-05T16:45:10.006Z,70.20
2019-05-05T16:47:39.090Z,70.30
2019-05-05T16:50:08.188Z,68.20
2019-05-05T16:52:38.828Z,69.90
2019-05-05T16:55:13.382Z,68.60
2019-05-05T16:57:43.724Z,68.50
2019-05-05T17:00:12.880Z,69.90
2019-05-05T17:02:44.871Z,68.80
2019-05-05T17:05:14.073Z,68.40
2019-05-05T17:07:43.195Z,67.10
2019-05-05T17:10:13.822Z,69.80
2019-05-05T17:12:44.317Z,68.60
2019-05-05T17:15:35.196Z,70.30
2019-05-05T17:18:32.506Z,70.10
2019-05-05T17:21:09.928Z,72.30
2019-05-05T17:23:39.261Z,72.80
2019-05-05T17:26:08.091Z,72.20
2019-05-05T17:28:37.368Z,70.20
2019-05-05T17:31:08.058Z,74.80
2019-05-05T17:33:38.538Z,70.40
2019-05-05T17:36:07.597Z,70.00
2019-05-05T17:38:37.049Z,71.60
2019-05-05T17:41:07.800Z,78.10
2019-05-05T17:43:41.612Z,80.90
2019-05-05T17:46:21.772Z,73.00
2019-05-05T17:49:01.610Z,73.90
2019-05-05T17:51:43.658Z,76.30
2019-05-05T17:54:33.910Z,74.00
2019-05-05T17:57:03.679Z,74.70
2019-05-05T17:59:33.757Z,71.40
2019-05-05T18:02:04.699Z,71.30
2019-05-05T18:04:34.359Z,71.50
2019-05-05T18:07:23.831Z,72.10
2019-05-05T18:10:04.183Z,72.60
2019-05-05T18:12:35.006Z,73.40
2019-05-05T18:15:07.349Z,73.00
2019-05-05T18:17:38.027Z,72.70
2019-05-05T18:20:06.337Z,71.40
2019-05-05T18:22:35.900Z,74.70
2019-05-05T18:25:06.346Z,72.90
2019-05-05T18:27:35.861Z,73.20
2019-05-05T18:30:06.149Z,76.40
2019-05-05T18:32:35.638Z,74.80
2019-05-05T18:35:06.767Z,77.20
2019-05-05T18:37:37.449Z,75.30
2019-05-05T18:40:07.508Z,74.10
2019-05-05T18:42:37.315Z,74.40
2019-05-05T18:45:09.052Z,76.10
2019-05-05T18:47:38.465Z,77.20
2019-05-05T18:50:09.147Z,77.30
2019-05-05T18:52:38.079Z,78.00
2019-05-05T18:55:08.148Z,76.50
2019-05-05T18:57:37.712Z,76.40
2019-05-05T19:00:09.070Z,72.90
2019-05-05T19:02:44.321Z,71.80
2019-05-05T19:05:23.555Z,73.00
2019-05-05T19:07:55.930Z,75.90
2019-05-05T19:10:24.975Z,74.80
2019-05-05T19:12:54.491Z,79.30
2019-05-05T19:15:25.203Z,73.90
2019-05-05T19:17:53.795Z,75.50
2019-05-05T19:20:27.580Z,78.00
2019-05-05T19:23:05.247Z,76.00
2019-05-05T19:25:35.831Z,75.70
2019-05-05T19:28:04.891Z,75.30
2019-05-05T19:30:36.142Z,77.00
2019-05-05T19:33:05.379Z,77.30
2019-05-05T19:35:44.126Z,76.50
2019-05-05T19:38:07.002Z,77.00
2019-05-05T19:40:36.417Z,77.20
2019-05-05T19:43:05.777Z,78.00
2019-05-05T19:45:34.792Z,81.40
2019-05-05T19:48:05.914Z,79.60
2019-05-05T19:50:35.178Z,80.10
2019-05-05T19:53:04.701Z,78.60
2019-05-05T19:55:36.291Z,77.20
2019-05-05T19:58:05.878Z,79.80
2019-05-05T20:00:38.440Z,82.00
2019-05-05T20:03:05.908Z,79.90
2019-05-05T20:05:35.287Z,79.60
2019-05-05T20:08:04.453Z,78.60
2019-05-05T20:10:33.672Z,76.70
2019-05-05T20:13:04.818Z,78.70
2019-05-05T20:15:34.965Z,82.90
2019-05-05T20:18:04.673Z,82.40
2019-05-05T20:20:33.942Z,79.30
2019-05-05T20:23:04.220Z,80.50
2019-05-05T20:25:34.028Z,80.90
2019-05-05T20:28:03.881Z,80.60
2019-05-05T20:30:34.220Z,79.90
2019-05-05T20:33:05.367Z,81.60
2019-05-05T20:35:36.526Z,80.50
2019-05-05T20:38:14.290Z,78.90
2019-05-05T20:41:01.288Z,84.20
2019-05-05T20:43:30.533Z,83.30
2019-05-05T20:45:59.571Z,81.70
2019-05-05T20:48:28.783Z,81.70
2019-05-05T20:50:57.982Z,82.60
2019-05-05T20:53:27.273Z,82.20
2019-05-05T20:55:56.078Z,80.60
2019-05-05T20:58:24.946Z,82.60
2019-05-05T21:00:54.913Z,83.40
2019-05-05T21:03:24.070Z,82.10
2019-05-05T21:05:53.851Z,81.20
2019-05-05T21:08:23.608Z,83.80
2019-05-05T21:10:53.661Z,80.10
2019-05-05T21:13:22.956Z,80.30
2019-05-05T21:15:53.771Z,80.60
2019-05-05T21:18:23.906Z,82.30
2019-05-05T21:20:54.660Z,80.30
2019-05-05T21:23:25.435Z,80.60
2019-05-05T21:25:58.619Z,82.70
2019-05-05T21:28:27.542Z,81.70
2019-05-05T21:30:56.655Z,78.10
2019-05-05T21:33:25.608Z,79.00
2019-05-05T21:35:55.067Z,75.80
2019-05-05T21:38:24.182Z,77.50
2019-05-05T21:40:53.184Z,81.50
2019-05-05T21:43:21.986Z,81.40
2019-05-05T21:45:50.934Z,79.10
2019-05-05T21:48:19.823Z,79.20
2019-05-05T21:50:50.491Z,77.80
2019-05-05T21:53:26.326Z,75.30
2019-05-05T21:56:13.888Z,74.40
2019-05-05T21:58:44.403Z,79.20
2019-05-05T22:01:15.077Z,82.20
2019-05-05T22:03:44.351Z,82.40
2019-05-05T22:06:14.624Z,79.30
2019-05-05T22:08:43.724Z,78.30
2019-05-05T22:11:14.688Z,78.90
2019-05-05T22:13:44.175Z,80.00
2019-05-05T22:16:13.635Z,82.50
2019-05-05T22:18:44.710Z,82.70
2019-05-05T22:21:15.352Z,82.60
2019-05-05T22:23:45.886Z,82.90
2019-05-05T22:26:15.186Z,82.90
2019-05-05T22:28:44.609Z,83.40
2019-05-05T22:31:14.169Z,83.00
2019-05-05T22:33:44.744Z,82.80
2019-05-05T22:36:14.145Z,82.30
2019-05-05T22:38:44.556Z,82.10
2019-05-05T22:41:15.853Z,80.70
2019-05-05T22:43:44.322Z,80.50
2019-05-05T22:46:14.167Z,81.80
2019-05-05T22:48:44.058Z,82.00
2019-05-05T22:51:14.423Z,82.00
2019-05-05T22:53:43.992Z,82.70
2019-05-05T22:56:14.780Z,82.90
2019-05-05T22:58:43.922Z,82.40
2019-05-05T23:01:13.647Z,83.40
2019-05-05T23:03:51.985Z,81.60
2019-05-05T23:06:31.420Z,82.80
2019-05-05T23:09:00.381Z,82.70
2019-05-05T23:11:29.242Z,81.90
2019-05-05T23:14:16.207Z,81.30
2019-05-05T23:16:46.550Z,80.20
2019-05-05T23:19:15.330Z,82.10
2019-05-05T23:21:45.779Z,82.30
2019-05-05T23:24:25.507Z,81.30
2019-05-05T23:26:55.566Z,81.10
2019-05-05T23:29:26.492Z,82.20
2019-05-05T23:31:54.418Z,81.90
2019-05-05T23:34:24.258Z,82.30
2019-05-05T23:36:54.961Z,83.60
2019-05-05T23:39:24.288Z,84.50
2019-05-05T23:41:54.700Z,85.30
2019-05-05T23:44:23.979Z,83.90
2019-05-05T23:46:53.714Z,82.80
2019-05-05T23:49:24.259Z,83.90
2019-05-05T23:51:54.035Z,85.20
2019-05-05T23:54:24.688Z,86.20
2019-05-05T23:56:54.388Z,87.40
2019-05-05T23:59:24.131Z,86.80
